Time;durP1;ratioP1;P1;durP2;ratioP2;P2;SDS_P1;SDS_P2;PMS_P1;PMS_P2;Temp;Humidity;BMP_temperature;BMP_pressure;BME280_temperature;BME280_humidity;BME280_pressure;Samples;Min_cycle;Max_cycle;Signal;HPM_P1;HPM_P2
2024/03/20 00:02:10;;;;;;;4.00;1.92;;;;;;;;;;5048872;28;20395;-79
2024/03/20 00:04:36;;;;;;;3.85;1.88;;;;;;;;;;5048871;28;20033;-79
2024/03/20 00:07:02;;;;;;;2.72;1.60;;;;;;;;;;5048403;28;20116;-79
2024/03/20 00:09:28;;;;;;;3.67;1.52;;;;;;;;;;5045213;28;20021;-79
2024/03/20 00:11:54;;;;;;;1.33;1.10;;;;;;;;;;5049323;28;20082;-79
2024/03/20 00:14:20;;;;;;;2.63;1.55;;;;;;;;;;5048673;28;20582;-78
2024/03/20 00:16:46;;;;;;;7.30;1.92;;;;;;;;;;5047779;28;20441;-79
2024/03/20 00:19:12;;;;;;;5.78;2.03;;;;;;;;;;5049025;28;20036;-79
2024/03/20 00:21:38;;;;;;;3.55;1.38;;;;;;;;;;5034841;28;20082;-79
2024/03/20 00:24:04;;;;;;;3.60;1.50;;;6.50;98.10;;;;;;5028919;28;20523;-79
2024/03/20 00:26:30;;;;;;;4.82;1.60;;;;;;;;;;5030067;28;20323;-79
2024/03/20 00:28:56;;;;;;;3.92;2.10;;;;;;;;;;5028868;28;20583;-79
2024/03/20 00:31:22;;;;;;;2.92;2.10;;;;;;;;;;5028740;28;20033;-79
2024/03/20 00:33:48;;;;;;;3.20;2.20;;;;;;;;;;5029254;28;20140;-79
2024/03/20 00:36:14;;;;;;;2.20;1.58;;;;;;;;;;5029176;28;20112;-79
2024/03/20 00:38:43;;;;;;;8.35;1.77;;;6.80;97.30;;;;;;5028736;28;20488;-79
2024/03/20 00:41:08;;;;;;;1.73;1.63;;;;;;;;;;5029115;28;20029;-79
2024/03/20 00:43:35;;;;;;;4.90;1.85;;;6.90;96.90;;;;;;5029535;28;20029;-79
2024/03/20 00:46:02;;;;;;;5.00;2.58;;;;;;;;;;5029457;28;20063;-79
2024/03/20 00:48:28;;;;;;;5.28;2.15;;;;;;;;;;5028934;28;20491;-79
2024/03/20 00:50:54;;;;;;;5.00;2.55;;;;;;;;;;5028924;28;20068;-79
2024/03/20 00:53:19;;;;;;;2.80;1.70;;;;;;;;;;5028816;28;20037;-79
2024/03/20 00:55:45;;;;;;;7.05;2.35;;;;;;;;;;5028626;28;20488;-79
2024/03/20 00:58:12;;;;;;;3.78;1.88;;;;;;;;;;5029003;28;20025;-79
2024/03/20 01:00:41;;;;;;;3.13;1.73;;;6.80;95.60;;;;;;5026361;28;20447;-79
2024/03/20 01:03:08;;;;;;;3.85;1.55;;;;;;;;;;5027484;28;20573;-79
2024/03/20 01:05:34;;;;;;;1.75;1.42;;;;;;;;;;5028713;28;20544;-79
2024/03/20 01:08:00;;;;;;;2.42;2.13;;;;;;;;;;5037156;28;20036;-79
2024/03/20 01:10:26;;;;;;;5.40;2.03;;;;;;;;;;5047226;28;20025;-79
2024/03/20 01:12:52;;;;;;;3.25;1.83;;;;;;;;;;5047951;28;20098;-79
2024/03/20 01:15:18;;;;;;;1.60;1.40;;;;;;;;;;5043932;28;20049;-79
2024/03/20 01:17:44;;;;;;;2.10;1.50;;;;;;;;;;5036592;28;20570;-79
2024/03/20 01:20:13;;;;;;;4.18;2.17;;;;;;;;;;5041043;28;20546;-79
2024/03/20 01:22:39;;;;;;;3.80;1.98;;;;;;;;;;5044978;28;20025;-79
2024/03/20 01:25:07;;;;;;;3.97;2.10;;;6.20;98.00;;;;;;5042161;28;20025;-79
2024/03/20 01:27:33;;;;;;;3.42;1.73;;;;;;;;;;5044973;28;20032;-79
2024/03/20 01:29:59;;;;;;;1.83;1.48;;;;;;;;;;5031645;28;20065;-78
2024/03/20 01:32:25;;;;;;;3.28;2.80;;;6.30;99.90;;;;;;5048231;28;20506;-79
2024/03/20 01:34:52;;;;;;;4.68;2.35;;;;;;;;;;5047585;28;20021;-79
2024/03/20 01:37:18;;;;;;;3.50;2.38;;;;;;;;;;5039172;28;20049;-79
2024/03/20 01:39:44;;;;;;;3.72;2.97;;;;;;;;;;5029147;28;20026;-79
2024/03/20 01:42:10;;;;;;;4.30;1.83;;;;;;;;;;5027393;28;20579;-79
2024/03/20 01:44:36;;;;;;;4.60;1.75;;;;;;;;;;5029136;28;20052;-79
2024/03/20 01:47:02;;;;;;;2.60;1.35;;;;;;;;;;5023557;28;20065;-79
2024/03/20 01:49:30;;;;;;;2.92;1.95;;;6.00;97.70;;;;;;5028211;28;20029;-79
2024/03/20 01:51:56;;;;;;;3.03;1.70;;;;;;;;;;5029066;28;20083;-79
2024/03/20 01:54:22;;;;;;;2.90;1.58;;;;;;;;;;5028204;28;20029;-79
2024/03/20 01:56:48;;;;;;;3.60;1.40;;;;;;;;;;5027044;28;20114;-79
2024/03/20 01:59:14;;;;;;;1.55;1.33;;;;;;;;;;5023777;28;20713;-79
2024/03/20 02:01:40;;;;;;;3.95;2.03;;;;;;;;;;5028142;28;20029;-79
2024/03/20 02:04:06;;;;;;;3.38;1.70;;;6.30;99.90;;;;;;5029581;28;20484;-79
2024/03/20 02:06:32;;;;;;;3.13;2.05;;;;;;;;;;5041155;28;20037;-79
2024/03/20 02:08:59;;;;;;;2.30;1.95;;;6.00;97.20;;;;;;5044612;28;20567;-79
2024/03/20 02:11:27;;;;;;;4.90;1.30;;;5.80;99.90;;;;;;5047167;28;20029;-79
2024/03/20 02:13:56;;;;;;;;;;;5.90;98.20;;;;;;5049180;28;20605;-79
2024/03/20 02:16:23;;;;;;;3.80;2.22;;;5.70;98.60;;;;;;5049567;28;19905;-79
2024/03/20 02:18:50;;;;;;;2.33;1.70;;;5.70;99.90;;;;;;5048017;28;20060;-79
2024/03/20 02:21:17;;;;;;;8.57;2.70;;;5.60;99.30;;;;;;5039758;28;20033;-79
2024/03/20 02:23:43;;;;;;;;;;;5.70;99.30;;;;;;5031722;28;20132;-79
2024/03/20 02:26:09;;;;;;;8.32;1.40;;;5.60;99.90;;;;;;5031380;28;20442;-79
2024/03/20 02:28:39;;;;;;;2.45;1.45;;;5.30;99.60;;;;;;5030722;28;20041;-79
2024/03/20 02:31:05;;;;;;;1.45;1.08;;;5.30;99.40;;;;;;5031611;28;20041;-79
2024/03/20 02:33:32;;;;;;;2.72;1.58;;;;;;;;;;5030740;28;20499;-82
2024/03/20 02:35:58;;;;;;;2.40;1.40;;;;;;;;;;5031664;28;20075;-79
2024/03/20 02:38:27;;;;;;;1.98;1.42;;;5.60;99.00;;;;;;5031566;28;20383;-79
2024/03/20 02:40:54;;;;;;;2.00;1.80;;;;;;;;;;5031591;28;20044;-79
2024/03/20 02:43:21;;;;;;;2.63;1.60;;;;;;;;;;5018693;28;20021;-79
2024/03/20 02:45:47;;;;;;;2.50;2.00;;;;;;;;;;5030693;28;20411;-79
2024/03/20 02:48:13;;;;;;;1.92;1.48;;;5.50;99.20;;;;;;5031099;28;20037;-80
2024/03/20 02:50:42;;;;;;;3.03;2.00;;;6.90;99.60;;;;;;5031879;28;20507;-79
2024/03/20 02:53:08;;;;;;;1.20;1.10;;;;;;;;;;5031162;28;20274;-79
2024/03/20 02:55:36;;;;;;;4.85;2.53;;;5.50;99.90;;;;;;5031723;28;20052;-79
2024/03/20 02:58:02;;;;;;;5.28;1.80;;;5.50;99.70;;;;;;5038118;28;20027;-79
2024/03/20 03:00:28;;;;;;;3.97;2.10;;;;;;;;;;5049252;28;20565;-79
2024/03/20 03:02:55;;;;;;;7.18;2.40;;;;;;;;;;5032490;28;20037;-79
2024/03/20 03:05:25;;;;;;;5.07;2.33;;;5.50;99.20;;;;;;5030398;28;20025;-79
2024/03/20 03:07:51;;;;;;;4.85;2.35;;;;;;;;;;5036729;28;20032;-79
2024/03/20 03:10:18;;;;;;;4.40;2.67;;;;;;;;;;5031317;28;20017;-79
2024/03/20 03:12:44;;;;;;;6.22;2.60;;;;;;;;;;5043510;28;20033;-79
2024/03/20 03:15:11;;;;;;;4.47;2.17;;;;;;;;;;5049419;28;20035;-79
2024/03/20 03:17:37;;;;;;;3.53;1.83;;;;;;;;;;5041414;28;20057;-79
2024/03/20 03:20:13;;;;;;;7.45;2.47;;;5.10;99.90;;;;;;5044811;28;20037;-79
2024/03/20 03:22:39;;;;;;;2.05;1.70;;;;;;;;;;5050348;28;20021;-79
2024/03/20 03:25:06;;;;;;;9.38;2.22;;;9.30;99.90;;;;;;5048339;28;20025;-79
2024/03/20 03:27:32;;;;;;;4.72;2.13;;;;;;;;;;5049224;28;20037;-79
2024/03/20 03:29:58;;;;;;;5.85;2.20;;;;;;;;;;5048498;28;20419;-79
2024/03/20 03:32:24;;;;;;;3.15;1.60;;;;;;;;;;5049552;28;20091;-79
2024/03/20 03:34:50;;;;;;;2.25;1.77;;;;;;;;;;5048734;28;20511;-79
2024/03/20 03:37:16;;;;;;;3.25;1.35;;;;;;;;;;5050107;28;20152;-79
2024/03/20 03:39:42;;;;;;;7.07;2.08;;;;;;;;;;5048791;28;20020;-79
2024/03/20 03:42:08;;;;;;;2.40;1.60;;;;;;;;;;5043966;28;20029;-78
2024/03/20 03:44:34;;;;;;;1.38;1.27;;;;;;;;;;5048294;28;20915;-78
2024/03/20 03:47:00;;;;;;;6.65;2.72;;;;;;;;;;5048769;28;20076;-79
2024/03/20 03:49:26;;;;;;;5.85;2.40;;;;;;;;;;5048463;28;20071;-78
2024/03/20 03:51:52;;;;;;;3.33;1.70;;;;;;;;;;5049097;28;20025;-79
2024/03/20 03:54:18;;;;;;;2.05;1.70;;;;;;;;;;5045571;28;20051;-79
2024/03/20 03:56:44;;;;;;;1.88;1.42;;;;;;;;;;5029600;28;20026;-79
2024/03/20 03:59:10;;;;;;;3.22;2.03;;;;;;;;;;5043125;28;20530;-79
2024/03/20 04:01:36;;;;;;;2.33;1.70;;;;;;;;;;5039721;28;20386;-79
2024/03/20 04:04:02;;;;;;;3.90;2.25;;;;;;;;;;5045191;28;20029;-79
2024/03/20 04:06:28;;;;;;;2.42;1.52;;;;;;;;;;5048930;28;20496;-79
2024/03/20 04:08:54;;;;;;;2.58;1.63;;;;;;;;;;5048074;28;20067;-79
2024/03/20 04:11:23;;;;;;;2.58;2.33;;;;;;;;;;5049045;28;20056;-79
2024/03/20 04:13:49;;;;;;;3.50;2.15;;;;;;;;;;5044175;28;20029;-79
2024/03/20 04:16:15;;;;;;;12.63;2.20;;;;;;;;;;5027912;28;20518;-79
2024/03/20 04:18:42;;;;;;;2.42;2.22;;;;;;;;;;5045755;28;20480;-79
2024/03/20 04:21:07;;;;;;;2.05;1.63;;;;;;;;;;5049843;28;20108;-79
2024/03/20 04:23:33;;;;;;;5.72;2.22;;;;;;;;;;5047697;28;20086;-79
2024/03/20 04:25:59;;;;;;;3.70;1.83;;;;;;;;;;5048284;28;20029;-79
2024/03/20 04:28:25;;;;;;;4.18;2.50;;;;;;;;;;5048288;28;20045;-79
2024/03/20 04:30:52;;;;;;;3.08;1.90;;;5.10;99.90;;;;;;5048309;28;20024;-79
2024/03/20 04:33:18;;;;;;;2.67;1.60;;;;;;;;;;5047550;28;20021;-79
2024/03/20 04:35:44;;;;;;;3.30;2.35;;;;;;;;;;5047943;28;20491;-79
2024/03/20 04:38:10;;;;;;;2.33;2.10;;;;;;;;;;5046359;28;20028;-79
2024/03/20 04:40:36;;;;;;;4.47;2.50;;;5.00;99.90;;;;;;5047550;28;20029;-79
2024/03/20 04:43:02;;;;;;;15.32;3.10;;;;;;;;;;5045150;28;20139;-79
2024/03/20 04:45:28;;;;;;;3.25;1.98;;;;;;;;;;5046919;28;20022;-79
2024/03/20 04:47:54;;;;;;;2.65;2.17;;;;;;;;;;5044386;28;20439;-80
2024/03/20 04:50:20;;;;;;;2.80;1.80;;;;;;;;;;5047780;28;20029;-79
2024/03/20 04:52:46;;;;;;;2.25;1.50;;;;;;;;;;5045337;28;20021;-79
2024/03/20 04:55:12;;;;;;;2.33;1.45;;;;;;;;;;5037764;28;20067;-79
2024/03/20 04:57:38;;;;;;;1.75;1.63;;;;;;;;;;5045686;28;20029;-79
2024/03/20 05:00:12;;;;;;;3.97;2.10;;;4.80;99.90;;;;;;5037334;28;20022;-79
2024/03/20 05:02:38;;;;;;;3.95;2.13;;;;;;;;;;5028144;28;20032;-79
2024/03/20 05:05:04;;;;;;;3.53;2.25;;;5.00;99.90;;;;;;5040635;28;20119;-79
2024/03/20 05:07:30;;;;;;;2.67;1.83;;;;;;;;;;5047801;28;20116;-79
2024/03/20 05:09:56;;;;;;;1.85;1.20;;;5.80;99.90;;;;;;5036415;28;20147;-79
2024/03/20 05:12:21;;;;;;;2.30;1.50;;;5.00;99.90;;;;;;5033088;28;20100;-79
2024/03/20 05:14:47;;;;;;;3.20;2.83;;;;;;;;;;5036528;28;20526;-79
2024/03/20 05:17:13;;;;;;;3.78;2.78;;;;;;;;;;5034003;28;20497;-79
2024/03/20 05:19:39;;;;;;;1.95;1.58;;;;;;;;;;5047315;28;20025;-79
2024/03/20 05:22:06;;;;;;;7.57;1.73;;;;;;;;;;5032384;28;20656;-79
2024/03/20 05:24:32;;;;;;;2.40;1.77;;;;;;;;;;5031315;28;20026;-79
2024/03/20 05:26:58;;;;;;;7.22;3.22;;;;;;;;;;5033073;28;20448;-78
2024/03/20 05:29:24;;;;;;;9.25;2.47;;;;;;;;;;5033129;28;20049;-80
2024/03/20 05:31:49;;;;;;;4.65;2.40;;;4.90;99.90;;;;;;5037543;28;20029;-79
2024/03/20 05:34:15;;;;;;;14.35;2.53;;;;;;;;;;5030883;28;20029;-79
2024/03/20 05:36:41;;;;;;;4.72;2.25;;;;;;;;;;5042977;28;20430;-79
2024/03/20 05:39:08;;;;;;;3.80;2.22;;;;;;;;;;5039736;28;20025;-79
2024/03/20 05:41:34;;;;;;;8.07;2.55;;;;;;;;;;5037412;28;20043;-79
2024/03/20 05:44:00;;;;;;;4.38;2.47;;;;;;;;;;5041600;28;20070;-79
2024/03/20 05:46:26;;;;;;;3.47;2.08;;;;;;;;;;5043786;28;20041;-78
2024/03/20 05:48:52;;;;;;;4.85;2.63;;;;;;;;;;5042474;28;20033;-79
2024/03/20 05:51:18;;;;;;;6.32;2.13;;;;;;;;;;5047617;28;20406;-79
2024/03/20 05:53:44;;;;;;;4.25;2.65;;;;;;;;;;5046078;28;20029;-79
2024/03/20 05:56:10;;;;;;;3.80;2.30;;;;;;;;;;5038277;28;20029;-79
2024/03/20 05:58:36;;;;;;;2.58;2.38;;;;;;;;;;5040771;28;20025;-78
2024/03/20 06:01:02;;;;;;;8.38;3.00;;;;;;;;;;5040553;28;20025;-79
2024/03/20 06:03:28;;;;;;;12.95;3.38;;;;;;;;;;5038390;28;20034;-79
2024/03/20 06:05:54;;;;;;;5.18;2.63;;;;;;;;;;5033687;28;20033;-78
2024/03/20 06:08:21;;;;;;;3.63;2.60;;;;;;;;;;5033112;28;20080;-79
2024/03/20 06:10:47;;;;;;;4.03;2.67;;;;;;;;;;5039177;28;20025;-79
2024/03/20 06:13:13;;;;;;;5.38;3.38;;;;;;;;;;5028877;28;20288;-79
2024/03/20 06:15:39;;;;;;;7.15;2.78;;;;;;;;;;5032624;28;20511;-79
2024/03/20 06:18:05;;;;;;;2.85;2.35;;;;;;;;;;5030229;28;20384;-79
2024/03/20 06:20:31;;;;;;;3.30;2.33;;;;;;;;;;5036871;28;20473;-79
2024/03/20 06:22:57;;;;;;;2.63;2.35;;;;;;;;;;5042166;28;20022;-79
2024/03/20 06:25:24;;;;;;;4.20;3.17;;;;;;;;;;5035394;28;20033;-79
2024/03/20 06:27:50;;;;;;;3.17;2.00;;;;;;;;;;5031785;28;20442;-79
2024/03/20 06:30:16;;;;;;;6.63;2.42;;;6.70;99.90;;;;;;5033207;28;20045;-79
2024/03/20 06:32:42;;;;;;;3.30;2.63;;;7.30;95.80;;;;;;5032529;28;20105;-79
2024/03/20 06:35:08;;;;;;;7.78;1.98;;;8.00;94.60;;;;;;5047055;28;20407;-79
2024/03/20 06:37:35;;;;;;;6.50;2.33;;;8.50;91.60;;;;;;5041661;28;20033;-79
2024/03/20 06:40:01;;;;;;;5.40;1.95;;;;;;;;;;5034315;28;20040;-79
2024/03/20 06:42:27;;;;;;;3.08;2.35;;;;;;;;;;5040024;28;20018;-79
2024/03/20 06:44:54;;;;;;;5.35;2.47;;;;;;;;;;5036804;28;20032;-80
2024/03/20 06:47:20;;;;;;;3.92;2.75;;;;;;;;;;5033533;28;20033;-79
2024/03/20 06:49:48;;;;;;;4.82;3.88;;;;;;;;;;5034730;28;20026;-79
2024/03/20 06:52:21;;;;;;;7.15;4.40;;;;;;;;;;5042173;28;20148;-80
2024/03/20 06:54:47;;;;;;;7.82;3.72;;;;;;;;;;5018185;28;20037;-81
2024/03/20 06:57:14;;;;;;;4.53;3.23;;;;;;;;;;5030422;28;20033;-79
2024/03/20 06:59:40;;;;;;;4.72;2.72;;;;;;;;;;5029809;28;20037;-80
2024/03/20 07:02:07;;;;;;;5.65;2.65;;;;;;;;;;5025647;28;20028;-81
2024/03/20 07:04:33;;;;;;;2.90;2.10;;;;;;;;;;5033412;28;20809;-88
2024/03/20 07:07:01;;;;;;;5.88;2.83;;;;;;;;;;5033952;28;20063;-80
2024/03/20 07:09:27;;;;;;;4.60;3.25;;;;;;;;;;5039376;28;20030;-80
2024/03/20 07:11:53;;;;;;;4.93;3.30;;;;;;;;;;5036965;28;20108;-80
2024/03/20 07:14:20;;;;;;;3.58;2.92;;;;;;;;;;5032880;28;20049;-80
2024/03/20 07:16:46;;;;;;;3.67;2.33;;;;;;;;;;5033757;28;20025;-81
2024/03/20 07:19:12;;;;;;;2.88;2.08;;;24.40;50.20;;;;;;5041303;28;20431;-80
2024/03/20 07:21:39;;;;;;;4.53;3.08;;;26.70;50.30;;;;;;5038754;28;20026;-80
2024/03/20 07:24:08;;;;;;;4.03;3.20;;;29.20;43.40;;;;;;5032287;28;20415;-81
2024/03/20 07:26:38;;;;;;;3.63;2.33;;;31.40;52.50;;;;;;5036067;28;20045;-83
2024/03/20 07:29:09;;;;;;;5.40;2.38;;;32.80;38.50;;;;;;5033589;28;20107;-82
2024/03/20 07:31:36;;;;;;;5.05;2.47;;;;;;;;;;4984399;28;20089;-82
2024/03/20 07:34:03;;;;;;;2.47;2.08;;;;;;;;;;4989201;28;20033;-83
2024/03/20 07:36:29;;;;;;;4.25;2.13;;;;;;;;;;4989384;28;20076;-83
2024/03/20 07:38:55;;;;;;;5.40;2.83;;;;;;;;;;4991699;28;20026;-83
2024/03/20 07:41:21;;;;;;;2.70;1.70;;;;;;;;;;4994122;28;20018;-83
2024/03/20 07:43:47;;;;;;;2.35;1.70;;;;;;;;;;4993536;28;20030;-85
2024/03/20 07:46:13;;;;;;;3.47;1.90;;;;;;;;;;4986588;28;20523;-83
2024/03/20 07:48:46;;;;;;;2.53;2.03;;;37.30;30.80;;;;;;4993060;28;20019;-83
2024/03/20 07:51:12;;;;;;;2.45;1.20;;;;;;;;;;4984579;28;20286;-82
2024/03/20 07:53:38;;;;;;;2.53;1.40;;;;;;;;;;4989547;28;20080;-85
2024/03/20 07:56:05;;;;;;;7.32;2.42;;;38.60;31.90;;;;;;4987311;28;20414;-82
2024/03/20 07:58:31;;;;;;;1.90;1.60;;;39.10;39.70;;;;;;4994345;28;20485;-80
2024/03/20 08:00:58;;;;;;;;;;;38.80;30.00;;;;;;4994206;28;20035;-82
2024/03/20 08:03:24;;;;;;;2.97;1.85;;;;;;;;;;4986166;28;19906;-93
2024/03/20 08:05:50;;;;;;;6.05;1.83;;;;;;;;;;4996416;28;20053;-94
2024/03/20 08:08:15;;;;;;;6.10;1.80;;;40.20;37.50;;;;;;4997724;28;20025;-92
2024/03/20 08:10:41;;;;;;;2.87;1.90;;;;;;;;;;4989600;28;20054;-93
2024/03/20 08:13:09;;;;;;;1.75;1.50;;;42.30;33.60;;;;;;4997207;28;20044;-93
2024/03/20 08:15:39;;;;;;;2.97;1.63;;;;;;;;;;4995144;28;20435;-83
2024/03/20 08:18:05;;;;;;;2.35;1.40;;;;;;;;;;5003714;28;20114;-84
2024/03/20 08:20:31;;;;;;;3.20;1.58;;;;;;;;;;4989967;28;20030;-84
2024/03/20 08:22:57;;;;;;;2.55;1.50;;;;;;;;;;4985960;28;20052;-83
2024/03/20 08:25:23;;;;;;;3.58;1.17;;;;;;;;;;4981704;28;20038;-84
2024/03/20 08:27:49;;;;;;;2.97;1.08;;;;;;;;;;4987184;28;20471;-83
2024/03/20 08:30:14;;;;;;;3.90;1.02;;;44.10;30.80;;;;;;4983879;28;20129;-92
2024/03/20 08:32:41;;;;;;;2.13;1.10;;;;;;;;;;4988422;28;20026;-91
2024/03/20 08:35:07;;;;;;;;;;;44.80;24.50;;;;;;4991277;28;20026;-93
2024/03/20 08:37:34;;;;;;;1.67;1.13;;;;;;;;;;4995583;28;20126;-92
2024/03/20 08:40:01;;;;;;;2.85;0.98;;;;;;;;;;4993191;28;20057;-93
2024/03/20 08:42:28;;;;;;;1.35;0.95;;;46.40;28.20;;;;;;4993586;28;20120;-92
2024/03/20 08:44:54;;;;;;;1.88;1.00;;;;;;;;;;4993430;28;20068;-93
2024/03/20 08:47:19;;;;;;;1.98;0.98;;;47.80;27.30;;;;;;4989659;28;20050;-91
2024/03/20 08:49:45;;;;;;;;;;;48.20;24.20;;;;;;4994547;28;20056;-93
2024/03/20 08:52:12;;;;;;;1.95;1.13;;;49.60;28.80;;;;;;4988325;28;19906;-93
2024/03/20 08:54:43;;;;;;;1.48;1.38;;;49.60;23.40;;;;;;4990155;28;20014;-92
2024/03/20 08:57:12;;;;;;;2.15;1.58;;;49.50;28.80;;;;;;4986796;28;20034;-93
2024/03/20 08:59:38;;;;;;;3.95;1.67;;;;;;;;;;4990499;28;20061;-92
2024/03/20 09:02:04;;;;;;;2.03;1.60;;;;;;;;;;4989438;28;20028;-93
2024/03/20 09:04:30;;;;;;;2.75;1.25;;;;;;;;;;4991840;28;20065;-94
2024/03/20 09:06:56;;;;;;;3.90;1.70;;;48.90;28.70;;;;;;4988483;28;20050;-93
2024/03/20 09:09:22;;;;;;;2.13;1.38;;;49.20;27.40;;;;;;4992330;28;20401;-92
2024/03/20 09:11:48;;;;;;;3.45;1.52;;;;;;;;;;4996843;28;20504;-93
2024/03/20 09:14:14;;;;;;;3.67;1.65;;;49.10;24.20;;;;;;4988735;28;20030;-93
2024/03/20 09:16:40;;;;;;;1.90;1.00;;;;;;;;;;4987246;28;20035;-94
2024/03/20 09:19:06;;;;;;;2.33;1.38;;;;;;;;;;4992102;28;20029;-93
2024/03/20 09:21:34;;;;;;;2.05;1.15;;;;;;;;;;4991155;28;20029;-93
2024/03/20 09:24:03;;;;;;;1.13;1.00;;;49.70;23.00;;;;;;4985522;28;20104;-93
2024/03/20 09:26:28;;;;;;;1.83;0.88;;;49.70;28.30;;;;;;5000935;28;20046;-93
2024/03/20 09:28:54;;;;;;;1.60;0.80;;;;;;;;;;4989523;28;20072;-81
2024/03/20 09:31:20;;;;;;;1.15;0.98;;;;;;;;;;4993847;28;20393;-81
2024/03/20 09:33:46;;;;;;;2.50;0.80;;;;;;;;;;4996951;28;20030;-83
2024/03/20 09:36:13;;;;;;;1.23;0.60;;;;;;;;;;4986077;28;20588;-85
2024/03/20 09:38:39;;;;;;;2.80;0.70;;;;;;;;;;4996907;28;20033;-85
2024/03/20 09:41:13;;;;;;;1.45;0.70;;;48.80;22.50;;;;;;4987576;28;20034;-87
2024/03/20 09:43:39;;;;;;;1.00;0.80;;;;;;;;;;4991073;28;20493;-86
2024/03/20 09:46:08;;;;;;;2.10;1.17;;;49.00;22.30;;;;;;4993950;28;20066;-84
2024/03/20 09:48:34;;;;;;;1.27;0.63;;;49.20;22.50;;;;;;5005933;28;20121;-82
2024/03/20 09:51:00;;;;;;;7.07;1.00;;;48.70;24.10;;;;;;4997242;28;20058;-85
2024/03/20 09:53:30;;;;;;;1.30;0.65;;;;;;;;;;4993634;28;20100;-85
2024/03/20 09:55:56;;;;;;;3.75;1.13;;;;;;;;;;4991049;28;20031;-86
2024/03/20 09:58:22;;;;;;;1.38;0.90;;;;;;;;;;5009394;28;20026;-86
2024/03/20 10:00:48;;;;;;;2.40;0.70;;;;;;;;;;4999725;28;20112;-86
2024/03/20 10:03:15;;;;;;;1.75;0.73;;;48.50;28.60;;;;;;5006221;28;20037;-85
2024/03/20 10:05:41;;;;;;;1.40;0.95;;;;;;;;;;4999902;28;20034;-85
2024/03/20 10:08:10;;;;;;;0.93;0.40;;;49.00;22.80;;;;;;4998720;28;20037;-86
2024/03/20 10:10:36;;;;;;;0.73;0.45;;;;;;;;;;5009378;28;20499;-86
2024/03/20 10:13:01;;;;;;;3.83;0.47;;;49.50;26.00;;;;;;4997402;28;20057;-85
2024/03/20 10:15:27;;;;;;;2.40;0.65;;;;;;;;;;4990359;28;20065;-86
2024/03/20 10:17:55;;;;;;;1.05;0.47;;;;;;;;;;4988264;28;20062;-86
2024/03/20 10:20:21;;;;;;;1.10;0.50;;;;;;;;;;4993891;28;20045;-86
2024/03/20 10:22:47;;;;;;;2.55;0.90;;;49.00;22.00;;;;;;4993022;28;20065;-85
2024/03/20 10:25:16;;;;;;;0.88;0.50;;;48.20;22.00;;;;;;4988911;28;20069;-86
2024/03/20 10:27:50;;;;;;;1.02;0.50;;;47.70;22.00;;;;;;4980030;28;20077;-86
2024/03/20 10:30:20;;;;;;;0.50;0.38;;;47.30;22.40;;;;;;4980974;28;20054;-86
2024/03/20 10:32:48;;;;;;;1.45;0.70;;;47.20;22.40;;;;;;4979412;28;20035;-87
2024/03/20 10:35:18;;;;;;;1.45;0.90;;;46.60;27.90;;;;;;4996947;28;20048;-86
2024/03/20 10:37:46;;;;;;;1.42;0.32;;;46.50;27.20;;;;;;4986786;28;20117;-86
2024/03/20 10:40:21;;;;;;;0.65;0.30;;;46.60;25.60;;;;;;4989690;28;20022;-86
2024/03/20 10:42:49;;;;;;;1.83;0.60;;;47.30;22.50;;;;;;4992290;28;20037;-86
2024/03/20 10:45:16;;;;;;;1.25;0.50;;;;;;;;;;4994413;28;20113;-86
2024/03/20 10:47:44;;;;;;;2.47;0.60;;;47.20;22.50;;;;;;4990470;28;20252;-86
2024/03/20 10:50:10;;;;;;;2.05;1.08;;;;;;;;;;5007915;28;20026;-86
2024/03/20 10:52:36;;;;;;;3.00;0.60;;;;;;;;;;5008728;28;20044;-86
2024/03/20 10:55:04;;;;;;;3.47;0.88;;;;;;;;;;5005153;28;20117;-77
2024/03/20 10:57:30;;;;;;;0.57;0.40;;;47.20;28.90;;;;;;5001188;28;20117;-76
2024/03/20 10:59:57;;;;;;;0.77;0.47;;;46.90;27.90;;;;;;5005751;28;20492;-77
2024/03/20 11:02:24;;;;;;;0.60;0.30;;;47.30;22.80;;;;;;5003266;28;20117;-77
2024/03/20 11:04:49;;;;;;;0.77;0.40;;;48.40;28.70;;;;;;5004694;28;20141;-74
2024/03/20 11:07:21;;;;;;;0.82;0.50;;;47.10;22.90;;;;;;4991815;28;20567;-74
2024/03/20 11:09:47;;;;;;;1.33;0.77;;;;;;;;;;4991263;28;20030;-74
2024/03/20 11:12:42;;;;;;;2.30;0.35;;;47.40;22.90;;;;;;4991623;28;20022;-74
2024/03/20 11:15:08;;;;;;;0.90;0.40;;;;;;;;;;4982536;28;20597;-74
2024/03/20 11:17:36;;;;;;;0.98;0.50;;;47.10;28.50;;;;;;4989564;28;20041;-74
2024/03/20 11:20:04;;;;;;;1.05;0.52;;;47.30;28.70;;;;;;4984209;28;20405;-74
2024/03/20 11:22:32;;;;;;;0.85;0.57;;;47.20;28.00;;;;;;4999419;28;20021;-74
2024/03/20 11:24:58;;;;;;;1.27;0.40;;;;;;;;;;4991977;28;20046;-74
2024/03/20 11:27:24;;;;;;;3.45;0.60;;;;;;;;;;5001086;28;20048;-74
2024/03/20 11:29:51;;;;;;;1.15;0.50;;;;;;;;;;4953412;28;1097517;-73
2024/03/20 11:32:21;;;;;;;0.90;0.50;;;46.70;24.30;;;;;;4994088;28;20522;-74
2024/03/20 11:34:47;;;;;;;1.27;0.75;;;;;;;;;;4995878;28;20022;-74
2024/03/20 11:37:13;;;;;;;;;;;45.60;23.70;;;;;;5003157;28;20662;-74
2024/03/20 11:39:40;;;;;;;0.90;0.40;;;46.60;23.40;;;;;;4995025;28;19914;-76
2024/03/20 11:42:06;;;;;;;1.33;0.75;;;47.20;27.20;;;;;;4992477;28;20053;-76
2024/03/20 11:44:32;;;;;;;;;;;47.00;23.50;;;;;;4979695;28;20401;-77
2024/03/20 11:46:58;;;;;;;1.05;0.68;;;;;;;;;;4991304;28;19959;-76
2024/03/20 11:49:27;;;;;;;;;;;46.60;22.50;;;;;;4988619;28;20489;-77
2024/03/20 11:51:53;;;;;;;1.30;0.45;;;;;;;;;;4991890;28;19956;-75
2024/03/20 11:54:19;;;;;;;0.90;0.68;;;45.30;28.30;;;;;;4982437;28;20062;-76
2024/03/20 11:56:49;;;;;;;1.17;0.47;;;44.10;22.40;;;;;;4989488;28;20022;-76
2024/03/20 11:59:14;;;;;;;3.25;0.80;;;43.10;30.50;;;;;;4992888;28;20511;-76
2024/03/20 12:01:40;;;;;;;1.30;0.63;;;42.00;31.20;;;;;;4992913;28;20026;-76
2024/03/20 12:04:06;;;;;;;1.60;0.80;;;;;;;;;;5004853;28;20038;-77
2024/03/20 12:06:38;;;;;;;3.17;0.80;;;39.20;23.60;;;;;;4990304;28;20285;-77
2024/03/20 12:09:15;;;;;;;1.42;0.80;;;37.90;24.00;;;;;;4990316;28;20041;-76
2024/03/20 12:11:41;;;;;;;1.23;0.70;;;;;;;;;;4981383;28;20097;-75
2024/03/20 12:14:08;;;;;;;3.05;0.93;;;37.80;24.40;;;;;;4992660;28;20049;-78
2024/03/20 12:16:34;;;;;;;1.35;0.70;;;36.70;24.50;;;;;;4991849;28;20591;-75
2024/03/20 12:19:00;;;;;;;1.95;0.90;;;35.60;31.20;;;;;;4993817;28;20022;-75
2024/03/20 12:21:27;;;;;;;6.07;1.15;;;;;;;;;;4991471;28;20080;-77
2024/03/20 12:23:53;;;;;;;2.53;1.02;;;33.40;26.50;;;;;;4991812;28;20037;-75
2024/03/20 12:26:22;;;;;;;3.80;0.75;;;32.80;26.90;;;;;;4996948;28;20524;-78
2024/03/20 12:28:49;;;;;;;3.13;1.40;;;32.10;27.30;;;;;;4991577;28;20495;-78
2024/03/20 12:31:22;;;;;;;2.47;1.00;;;31.70;27.80;;;;;;4990846;28;20130;-78
2024/03/20 12:33:49;;;;;;;1.80;0.85;;;;;;;;;;4988084;28;20488;-76
2024/03/20 12:36:19;;;;;;;1.73;0.93;;;30.50;28.70;;;;;;4989023;28;20035;-77
2024/03/20 12:38:45;;;;;;;1.00;0.70;;;29.90;29.40;;;;;;4991836;28;20799;-73
2024/03/20 12:41:14;;;;;;;1.23;0.80;;;29.50;29.90;;;;;;4991425;28;20030;-82
2024/03/20 12:43:40;;;;;;;0.90;0.65;;;29.10;43.80;;;;;;4992391;28;20763;-84
2024/03/20 12:46:06;;;;;;;2.22;0.68;;;;;;;;;;4992512;28;20038;-84
2024/03/20 12:48:35;;;;;;;3.45;1.30;;;28.90;44.50;;;;;;4990555;28;20509;-85
2024/03/20 12:51:03;;;;;;;1.38;0.77;;;28.60;45.50;;;;;;4999188;28;20034;-90
2024/03/20 12:53:29;;;;;;;1.65;0.77;;;28.00;40.90;;;;;;5005224;28;20021;-88
2024/03/20 12:55:55;;;;;;;1.58;0.73;;;;;;;;;;5007745;28;20034;-94
2024/03/20 12:58:21;;;;;;;1.63;0.88;;;;;;;;;;5002213;28;20110;-79
2024/03/20 13:00:47;;;;;;;1.43;0.70;;;;;;;;;;5004952;28;20567;-78
2024/03/20 13:03:19;;;;;;;3.00;0.70;;;26.50;34.60;;;;;;5001291;28;20018;-80
2024/03/20 13:05:51;;;;;;;2.72;0.80;;;26.10;32.90;;;;;;4990214;28;20504;-85
2024/03/20 13:08:19;;;;;;;1.13;0.90;;;;;;;;;;4997583;28;20076;-85
2024/03/20 13:10:45;;;;;;;1.38;0.80;;;;;;;;;;4992769;28;20041;-85
2024/03/20 13:13:19;;;;;;;1.67;0.93;;;26.50;32.90;;;;;;4992166;28;20064;-85
2024/03/20 13:15:46;;;;;;;1.95;0.80;;;;;;;;;;4995603;28;20087;-85
2024/03/20 13:18:40;;;;;;;3.88;1.10;;;27.30;33.00;;;;;;4991510;28;20069;-85
2024/03/20 13:21:16;;;;;;;1.30;0.90;;;27.80;31.80;;;;;;4988337;28;20139;-86
2024/03/20 13:23:42;;;;;;;;;;;28.00;31.60;;;;;;4994425;28;20030;-85
2024/03/20 13:26:14;;;;;;;1.53;0.40;;;27.60;30.70;;;;;;4993671;28;19920;-85
2024/03/20 13:28:41;;;;;;;3.20;0.60;;;27.40;44.80;;;;;;4995551;28;20046;-86
2024/03/20 13:31:10;;;;;;;0.63;0.40;;;26.90;30.00;;;;;;4991479;28;20037;-79
2024/03/20 13:33:36;;;;;;;2.08;1.08;;;26.50;44.80;;;;;;4993569;28;20084;-78
2024/03/20 13:36:04;;;;;;;1.88;0.43;;;26.70;45.20;;;;;;4991642;28;20030;-78
2024/03/20 13:38:29;;;;;;;1.52;0.45;;;26.40;41.70;;;;;;4994182;28;20105;-78
2024/03/20 13:41:23;;;;;;;3.95;0.80;;;;;;;;;;4991595;28;20105;-78
2024/03/20 13:44:01;;;;;;;1.02;0.93;;;;;;;;;;4984339;28;20034;-84
2024/03/20 13:46:27;;;;;;;1.38;0.70;;;25.90;41.50;;;;;;4993680;28;20288;-77
2024/03/20 13:48:53;;;;;;;1.67;0.75;;;;;;;;;;4997290;28;20031;-78
2024/03/20 13:51:20;;;;;;;2.08;1.08;;;25.60;34.10;;;;;;4995069;28;20102;-78
2024/03/20 13:53:48;;;;;;;0.70;0.70;;;25.30;31.90;;;;;;4992931;28;20472;-80
2024/03/20 13:56:16;;;;;;;0.30;0.30;;;25.70;46.00;;;;;;4993484;28;20392;-77
2024/03/20 13:58:42;;;;;;;2.08;0.50;;;25.90;42.30;;;;;;4992974;28;20309;-78